Time;durP1;ratioP1;P1;durP2;ratioP2;P2;SDS_P1;SDS_P2;PMS_P1;PMS_P2;Temp;Humidity;BMP_temperature;BMP_pressure;BME280_temperature;BME280_humidity;BME280_pressure;Samples;Min_cycle;Max_cycle;Signal;HPM_P1;HPM_P2
2023/05/08 00:01:35;;;;;;;228.45;218.38;;;10.80;99.90;;;;;;4987545;28;20450;-71
2023/05/08 00:04:01;;;;;;;223.98;214.05;;;10.80;99.90;;;;;;5006478;28;20045;-71
2023/05/08 00:06:26;;;;;;;239.13;228.65;;;10.70;99.90;;;;;;4987132;28;20407;-71
2023/05/08 00:08:54;;;;;;;251.40;240.35;;;10.70;99.90;;;;;;4983464;28;20498;-71
2023/05/08 00:11:19;;;;;;;259.15;247.55;;;10.70;99.90;;;;;;4979558;28;20049;-71
2023/05/08 00:13:45;;;;;;;274.35;262.02;;;10.70;99.90;;;;;;4985601;28;20042;-71
2023/05/08 00:16:11;;;;;;;286.92;274.20;;;10.60;99.90;;;;;;4968829;28;20045;-71
2023/05/08 00:18:38;;;;;;;262.83;251.15;;;10.60;99.90;;;;;;4986316;28;20041;-71
2023/05/08 00:21:06;;;;;;;273.00;260.92;;;10.60;99.90;;;;;;4987189;28;20045;-71
2023/05/08 00:23:32;;;;;;;260.42;248.85;;;10.60;99.90;;;;;;4985059;28;20104;-71
2023/05/08 00:25:58;;;;;;;271.80;259.83;;;10.50;99.90;;;;;;4982801;28;20068;-72
2023/05/08 00:28:24;;;;;;;281.27;268.90;;;10.50;99.90;;;;;;4969418;28;20121;-71
2023/05/08 00:30:49;;;;;;;287.42;274.77;;;10.50;99.90;;;;;;4986948;28;20490;-71
2023/05/08 00:33:15;;;;;;;267.05;255.15;;;10.50;99.90;;;;;;4968131;28;20509;-71
2023/05/08 00:35:41;;;;;;;266.10;254.23;;;10.50;99.90;;;;;;4970536;28;20152;-72
2023/05/08 00:38:08;;;;;;;265.83;254.00;;;10.50;99.90;;;;;;4992109;28;20046;-71
2023/05/08 00:40:34;;;;;;;268.75;256.75;;;10.50;99.90;;;;;;4985633;28;20050;-71
2023/05/08 00:43:00;;;;;;;253.77;242.63;;;10.40;99.90;;;;;;4969710;28;20518;-72
2023/05/08 00:45:35;;;;;;;273.65;261.55;;;10.40;99.90;;;;;;4980420;28;20042;-71
2023/05/08 00:48:01;;;;;;;285.88;273.05;;;10.40;99.90;;;;;;4987142;28;20137;-71
2023/05/08 00:50:26;;;;;;;274.17;261.90;;;10.40;99.90;;;;;;4985277;28;20126;-71
2023/05/08 00:52:53;;;;;;;280.33;267.85;;;10.40;99.90;;;;;;4972482;28;20043;-71
2023/05/08 00:55:19;;;;;;;289.30;276.17;;;10.30;99.90;;;;;;4979284;28;20407;-71
2023/05/08 00:57:46;;;;;;;311.75;297.55;;;10.30;99.90;;;;;;4987186;28;20050;-71
2023/05/08 01:00:12;;;;;;;292.63;279.45;;;10.30;99.90;;;;;;4986398;28;20130;-71
2023/05/08 01:02:39;;;;;;;294.77;281.55;;;10.30;99.90;;;;;;4985565;28;20407;-71
2023/05/08 01:05:05;;;;;;;288.63;275.58;;;10.30;99.90;;;;;;4998651;28;20033;-72
2023/05/08 01:07:31;;;;;;;326.63;311.25;;;10.20;99.90;;;;;;4985842;28;20046;-71
2023/05/08 01:09:57;;;;;;;293.77;280.50;;;10.20;99.90;;;;;;4987223;28;20050;-71
2023/05/08 01:12:44;;;;;;;271.88;259.80;;;10.20;99.90;;;;;;4968958;28;20038;-71
2023/05/08 01:15:37;;;;;;;293.17;279.80;;;10.10;99.90;;;;;;4986920;28;20411;-71
2023/05/08 01:18:20;;;;;;;275.10;262.80;;;10.10;99.90;;;;;;4994587;28;20795;-71
2023/05/08 01:21:04;;;;;;;278.73;266.13;;;10.10;99.90;;;;;;4973516;28;20042;-71
2023/05/08 01:24:00;;;;;;;271.23;259.25;;;10.00;99.90;;;;;;4985022;28;20050;-71
2023/05/08 01:27:12;;;;;;;249.25;238.05;;;10.00;99.90;;;;;;4995904;28;20517;-71
2023/05/08 01:29:55;;;;;;;234.73;224.00;;;10.00;99.90;;;;;;4982320;28;20112;-71
2023/05/08 01:32:28;;;;;;;239.25;228.65;;;10.00;99.90;;;;;;4990103;28;20105;-71
2023/05/08 01:35:20;;;;;;;229.32;219.07;;;10.00;99.90;;;;;;4988975;28;20043;-71
2023/05/08 01:37:57;;;;;;;236.98;226.45;;;10.00;99.90;;;;;;4976664;28;20057;-71
2023/05/08 01:40:50;;;;;;;228.40;218.10;;;9.90;99.90;;;;;;5002648;28;20089;-71
2023/05/08 01:43:30;;;;;;;220.40;210.38;;;9.90;99.90;;;;;;4968681;28;20050;-71
2023/05/08 01:45:58;;;;;;;220.48;210.55;;;9.90;99.90;;;;;;4987437;28;20451;-72
2023/05/08 01:48:52;;;;;;;206.93;197.45;;;9.90;99.90;;;;;;5004718;28;20046;-72
2023/05/08 01:51:22;;;;;;;234.90;224.30;;;9.90;99.90;;;;;;4973112;28;20422;-71
2023/05/08 01:53:51;;;;;;;247.75;236.40;;;9.90;99.90;;;;;;4989066;28;20057;-72
2023/05/08 01:56:21;;;;;;;251.38;239.88;;;9.90;99.90;;;;;;4973456;28;20054;-72
2023/05/08 01:58:50;;;;;;;307.13;293.45;;;9.80;99.90;;;;;;4988602;28;20046;-72
2023/05/08 02:01:19;;;;;;;315.02;300.77;;;9.80;99.90;;;;;;4990069;28;20062;-72
2023/05/08 02:03:46;;;;;;;344.27;327.98;;;9.80;99.90;;;;;;4989313;28;20061;-72
2023/05/08 02:06:15;;;;;;;333.40;318.15;;;9.80;99.90;;;;;;4999027;28;20042;-72
2023/05/08 02:08:43;;;;;;;297.75;284.25;;;9.80;99.90;;;;;;4988098;28;20035;-72
2023/05/08 02:11:11;;;;;;;307.98;294.27;;;9.80;99.90;;;;;;4989489;28;20469;-72
2023/05/08 02:13:38;;;;;;;303.70;289.92;;;9.80;99.90;;;;;;4988935;28;20105;-72
2023/05/08 02:16:07;;;;;;;303.08;289.45;;;9.70;99.90;;;;;;4973419;28;20060;-72
2023/05/08 02:18:34;;;;;;;290.38;277.10;;;9.70;99.90;;;;;;4987840;28;20046;-72
2023/05/08 02:21:04;;;;;;;269.02;257.10;;;9.70;99.90;;;;;;4989678;28;20073;-72
2023/05/08 02:23:33;;;;;;;237.88;226.73;;;9.70;99.90;;;;;;4989400;28;20054;-72
2023/05/08 02:26:00;;;;;;;226.82;216.30;;;9.60;99.90;;;;;;4987913;28;20084;-72
2023/05/08 02:28:27;;;;;;;227.25;216.38;;;9.60;99.90;;;;;;4973686;28;20056;-72
2023/05/08 02:30:53;;;;;;;224.18;213.45;;;9.60;99.90;;;;;;4988780;28;20410;-72
2023/05/08 02:33:19;;;;;;;198.98;189.50;;;9.50;99.90;;;;;;4988040;28;20053;-72
2023/05/08 02:35:49;;;;;;;215.80;205.63;;;9.50;99.90;;;;;;4989005;28;20384;-72
2023/05/08 02:38:18;;;;;;;219.25;208.85;;;9.50;99.90;;;;;;4995047;28;20046;-72
2023/05/08 02:40:48;;;;;;;204.73;195.07;;;9.50;99.90;;;;;;4987755;28;20141;-72
2023/05/08 02:43:14;;;;;;;188.73;179.32;;;9.50;99.90;;;;;;4988492;28;20042;-72
2023/05/08 02:45:55;;;;;;;154.32;146.52;;;9.40;99.90;;;;;;4989438;28;20100;-72
2023/05/08 02:48:35;;;;;;;154.95;147.23;;;9.40;99.90;;;;;;4970990;28;20050;-72
2023/05/08 02:51:37;;;;;;;141.73;134.18;;;9.30;99.90;;;;;;4987559;28;20069;-72
2023/05/08 02:54:10;;;;;;;143.95;136.63;;;9.30;99.90;;;;;;4981535;28;20082;-72
2023/05/08 02:57:20;;;;;;;138.23;130.93;;;9.20;99.90;;;;;;4988429;28;20043;-72
2023/05/08 02:59:55;;;;;;;123.30;116.80;;;9.20;99.90;;;;;;4986513;28;20050;-72
2023/05/08 03:02:36;;;;;;;142.80;135.57;;;9.20;99.90;;;;;;4988320;28;20483;-72
2023/05/08 03:05:24;;;;;;;171.93;163.43;;;9.10;99.90;;;;;;4986433;28;20623;-72
2023/05/08 03:07:53;;;;;;;168.45;160.05;;;9.10;99.90;;;;;;4988672;28;20066;-72
2023/05/08 03:10:23;;;;;;;174.88;166.27;;;9.00;99.90;;;;;;4987715;28;20042;-72
2023/05/08 03:12:53;;;;;;;165.15;156.93;;;9.10;99.90;;;;;;5003748;28;20042;-72
2023/05/08 03:15:41;;;;;;;172.18;163.73;;;9.00;99.90;;;;;;4966035;28;20398;-72
2023/05/08 03:18:11;;;;;;;183.43;174.27;;;9.00;99.90;;;;;;4986649;28;20050;-72
2023/05/08 03:20:41;;;;;;;182.70;173.73;;;9.00;99.90;;;;;;4971768;28;20050;-72
2023/05/08 03:23:09;;;;;;;168.73;160.32;;;8.90;99.90;;;;;;4987156;28;20050;-72
2023/05/08 03:25:38;;;;;;;153.15;145.23;;;8.90;99.90;;;;;;4986683;28;20049;-72
2023/05/08 03:28:05;;;;;;;139.05;131.93;;;8.90;99.90;;;;;;4986913;28;20049;-72
2023/05/08 03:30:35;;;;;;;158.77;150.73;;;8.90;99.90;;;;;;4987871;28;20093;-73
2023/05/08 03:33:02;;;;;;;142.98;135.65;;;8.80;99.90;;;;;;4981194;28;20034;-72
2023/05/08 03:35:29;;;;;;;171.15;162.68;;;8.80;99.90;;;;;;4987933;28;20459;-72
2023/05/08 03:37:55;;;;;;;157.35;149.40;;;8.80;99.90;;;;;;4995195;28;20042;-72
2023/05/08 03:40:21;;;;;;;149.05;140.70;;;8.80;99.90;;;;;;4986532;28;20476;-72
2023/05/08 03:42:47;;;;;;;155.65;147.82;;;8.80;99.90;;;;;;4987189;28;20049;-72
2023/05/08 03:45:14;;;;;;;142.80;135.32;;;8.80;99.90;;;;;;4987847;28;20053;-72
2023/05/08 03:47:42;;;;;;;141.18;133.82;;;8.80;99.90;;;;;;4986638;28;20038;-72
2023/05/08 03:50:08;;;;;;;140.35;133.07;;;8.80;99.90;;;;;;4987423;28;20432;-72
2023/05/08 03:52:34;;;;;;;134.05;126.97;;;8.70;99.90;;;;;;4986840;28;20054;-72
2023/05/08 03:55:03;;;;;;;141.38;133.93;;;8.70;99.90;;;;;;4987606;28;20517;-72
2023/05/08 03:57:57;;;;;;;137.27;130.10;;;8.70;99.90;;;;;;4986509;28;20069;-72
2023/05/08 04:00:49;;;;;;;138.25;130.68;;;8.70;99.90;;;;;;4985946;28;21540;-72
2023/05/08 04:03:41;;;;;;;141.80;134.35;;;8.70;99.90;;;;;;4969764;28;20065;-72
2023/05/08 04:06:14;;;;;;;136.82;129.73;;;8.70;99.90;;;;;;4998615;28;20793;-72
2023/05/08 04:08:54;;;;;;;147.70;139.95;;;8.70;99.90;;;;;;4984475;28;20126;-72
2023/05/08 04:11:30;;;;;;;143.88;136.40;;;8.70;99.90;;;;;;4985841;28;20042;-72
2023/05/08 04:14:02;;;;;;;147.13;139.60;;;8.80;99.90;;;;;;4986401;28;20034;-72
2023/05/08 04:16:30;;;;;;;145.95;138.32;;;8.80;99.90;;;;;;5003666;28;20048;-72
2023/05/08 04:19:05;;;;;;;139.45;132.32;;;8.80;99.90;;;;;;4969642;28;20046;-72
2023/05/08 04:21:34;;;;;;;140.35;133.10;;;8.90;99.90;;;;;;4987217;28;20062;-72
2023/05/08 04:24:02;;;;;;;137.68;130.48;;;8.90;99.90;;;;;;4985685;28;20046;-72
2023/05/08 04:26:28;;;;;;;131.35;124.30;;;8.90;99.90;;;;;;4986172;28;20050;-72
2023/05/08 04:28:54;;;;;;;132.18;124.95;;;9.00;99.90;;;;;;4987151;28;20042;-72
2023/05/08 04:31:21;;;;;;;132.65;125.70;;;9.10;99.90;;;;;;4987015;28;20380;-72
2023/05/08 04:33:47;;;;;;;135.40;128.52;;;9.20;99.90;;;;;;4986796;28;20038;-72
2023/05/08 04:36:13;;;;;;;133.60;126.63;;;9.20;99.90;;;;;;4968769;28;20506;-72
2023/05/08 04:38:42;;;;;;;130.07;123.28;;;9.30;99.90;;;;;;4988462;28;20108;-72
2023/05/08 04:41:08;;;;;;;134.63;127.32;;;9.40;99.90;;;;;;4985746;28;20085;-72
2023/05/08 04:43:35;;;;;;;126.70;120.20;;;9.40;99.90;;;;;;4986670;28;20225;-72
2023/05/08 04:46:00;;;;;;;121.07;114.68;;;9.50;99.90;;;;;;4986571;28;20046;-72
2023/05/08 04:48:26;;;;;;;119.43;113.18;;;9.60;99.90;;;;;;4986117;28;20345;-72
2023/05/08 04:50:52;;;;;;;110.28;104.47;;;9.80;99.90;;;;;;4985564;28;20052;-72
2023/05/08 04:53:17;;;;;;;104.25;98.70;;;10.20;99.90;;;;;;4985023;28;20371;-72
2023/05/08 04:55:43;;;;;;;125.95;119.57;;;10.50;99.90;;;;;;4970585;28;20430;-72
2023/05/08 04:58:09;;;;;;;146.07;138.90;;;10.80;99.90;;;;;;4986387;28;20724;-72
2023/05/08 05:00:35;;;;;;;143.25;136.10;;;10.80;99.90;;;;;;5001572;28;20379;-71
2023/05/08 05:03:01;;;;;;;137.65;130.77;;;10.80;99.90;;;;;;5000487;28;20047;-72
2023/05/08 05:05:26;;;;;;;137.20;130.30;;;10.80;99.90;;;;;;5004597;28;20080;-72
2023/05/08 05:07:52;;;;;;;127.32;120.82;;;10.70;99.90;;;;;;4973756;28;20165;-72
2023/05/08 05:10:18;;;;;;;120.03;113.75;;;10.60;99.90;;;;;;4989321;28;20073;-72
2023/05/08 05:12:43;;;;;;;142.15;135.13;;;10.60;99.90;;;;;;4991111;28;20070;-72
2023/05/08 05:15:10;;;;;;;142.10;135.18;;;10.60;99.90;;;;;;4973395;28;20438;-72
2023/05/08 05:17:35;;;;;;;146.52;139.23;;;10.50;99.90;;;;;;4988352;28;20414;-72
2023/05/08 05:20:01;;;;;;;145.90;138.73;;;10.60;99.90;;;;;;4971519;28;20035;-72
2023/05/08 05:22:27;;;;;;;132.98;126.25;;;10.60;99.90;;;;;;4970148;28;20081;-72
2023/05/08 05:24:53;;;;;;;153.85;146.38;;;10.60;99.90;;;;;;4987327;28;20046;-72
2023/05/08 05:27:19;;;;;;;169.07;161.13;;;10.60;99.90;;;;;;4989676;28;20046;-72
2023/05/08 05:29:45;;;;;;;153.45;145.90;;;11.00;99.90;;;;;;4989003;28;20034;-72
2023/05/08 05:32:10;;;;;;;178.18;170.02;;;11.90;99.90;;;;;;4987733;28;20522;-72
2023/05/08 05:34:36;;;;;;;156.63;149.18;;;12.80;99.90;;;;;;4988544;28;20042;-72
2023/05/08 05:37:02;;;;;;;118.60;112.75;;;13.80;99.90;;;;;;4992094;28;20029;-72
2023/05/08 05:39:27;;;;;;;92.90;87.82;;;14.40;99.90;;;;;;4989114;28;20092;-71
2023/05/08 05:41:53;;;;;;;107.55;102.20;;;15.00;99.90;;;;;;4991563;28;20426;-72
2023/05/08 05:44:18;;;;;;;99.00;93.95;;;15.40;99.90;;;;;;4989118;28;20171;-72
2023/05/08 05:46:44;;;;;;;108.95;103.55;;;15.90;99.90;;;;;;4985748;28;20050;-72
2023/05/08 05:49:11;;;;;;;99.53;94.50;;;15.90;99.90;;;;;;4990244;28;20050;-72
2023/05/08 05:51:36;;;;;;;117.78;112.05;;;16.20;99.90;;;;;;4989211;28;20518;-72
2023/05/08 05:54:02;;;;;;;206.82;197.68;;;16.70;99.90;;;;;;4987727;28;20038;-72
2023/05/08 05:56:27;;;;;;;221.45;211.30;;;16.70;99.90;;;;;;4973083;28;20173;-73
2023/05/08 05:58:53;;;;;;;269.23;257.42;;;16.20;99.90;;;;;;4989896;28;20038;-73
2023/05/08 06:01:19;;;;;;;271.20;259.30;;;15.50;99.90;;;;;;4988171;28;20054;-72
2023/05/08 06:03:45;;;;;;;259.80;248.57;;;14.80;99.90;;;;;;4989478;28;20042;-72
2023/05/08 06:06:11;;;;;;;234.88;224.52;;;14.50;99.90;;;;;;4989806;28;20037;-72
2023/05/08 06:08:36;;;;;;;222.77;213.07;;;14.30;99.90;;;;;;4989699;28;20517;-72
2023/05/08 06:11:02;;;;;;;182.52;174.40;;;14.10;99.90;;;;;;4987742;28;20038;-72
2023/05/08 06:13:28;;;;;;;184.10;175.85;;;13.90;99.90;;;;;;4988322;28;20041;-72
2023/05/08 06:15:57;;;;;;;209.55;200.35;;;13.80;99.90;;;;;;4988139;28;20184;-72
2023/05/08 06:18:23;;;;;;;117.15;111.57;;;13.60;99.90;;;;;;4979173;28;20511;-72
2023/05/08 06:20:48;;;;;;;238.00;227.63;;;13.50;99.90;;;;;;4980560;28;20046;-72
2023/05/08 06:23:14;;;;;;;170.35;162.57;;;13.40;99.90;;;;;;4989775;28;20576;-72
2023/05/08 06:25:39;;;;;;;189.68;181.15;;;13.30;99.90;;;;;;4988273;28;20050;-72
2023/05/08 06:28:06;;;;;;;158.77;151.65;;;13.20;99.90;;;;;;4989828;28;20046;-72
2023/05/08 06:30:33;;;;;;;150.55;143.68;;;13.20;99.90;;;;;;4988372;28;20416;-72
2023/05/08 06:32:59;;;;;;;178.75;170.88;;;13.20;99.90;;;;;;4988183;28;20092;-72
2023/05/08 06:35:24;;;;;;;157.27;150.20;;;13.30;99.90;;;;;;4989094;28;20046;-72
2023/05/08 06:37:50;;;;;;;184.75;176.48;;;13.30;99.90;;;;;;4991052;28;20075;-72
2023/05/08 06:40:15;;;;;;;216.80;207.15;;;13.40;99.90;;;;;;4988669;28;20026;-72
2023/05/08 06:42:41;;;;;;;162.32;155.00;;;13.40;99.90;;;;;;4988424;28;20515;-72
2023/05/08 06:45:08;;;;;;;175.10;167.23;;;13.50;99.90;;;;;;4988087;28;20681;-72
2023/05/08 06:47:33;;;;;;;229.10;219.07;;;13.60;99.90;;;;;;4984592;28;20134;-72
2023/05/08 06:49:59;;;;;;;281.25;268.75;;;13.70;99.90;;;;;;4969725;28;20117;-72
2023/05/08 06:52:25;;;;;;;307.52;293.88;;;13.80;99.90;;;;;;4988553;28;20038;-72
2023/05/08 06:54:50;;;;;;;321.27;306.90;;;13.80;99.90;;;;;;4987967;28;20045;-72
2023/05/08 06:57:16;;;;;;;312.50;298.50;;;13.90;99.90;;;;;;4988306;28;20034;-72
2023/05/08 06:59:42;;;;;;;410.02;390.55;;;14.00;99.90;;;;;;4987730;28;20042;-72
2023/05/08 07:02:08;;;;;;;221.98;212.18;;;14.10;99.90;;;;;;4988436;28;20066;-72
2023/05/08 07:04:35;;;;;;;226.18;216.32;;;14.20;99.90;;;;;;4978505;28;20107;-72
2023/05/08 07:07:01;;;;;;;313.10;299.08;;;14.30;99.90;;;;;;4990101;28;20046;-72
2023/05/08 07:09:26;;;;;;;182.35;174.25;;;14.50;99.90;;;;;;4988462;28;20041;-72
2023/05/08 07:11:52;;;;;;;153.82;146.77;;;14.60;99.90;;;;;;4989548;28;20129;-72
2023/05/08 07:14:17;;;;;;;137.82;131.50;;;14.70;99.90;;;;;;4987200;28;20034;-72
2023/05/08 07:16:43;;;;;;;271.83;259.63;;;14.70;99.90;;;;;;4988068;28;20073;-72
2023/05/08 07:19:09;;;;;;;153.35;146.38;;;14.80;99.90;;;;;;4988538;28;20046;-72
2023/05/08 07:21:34;;;;;;;207.68;198.52;;;15.00;99.90;;;;;;4987241;28;20061;-72
2023/05/08 07:24:00;;;;;;;175.35;167.50;;;15.20;99.90;;;;;;4988000;28;20046;-72
2023/05/08 07:26:26;;;;;;;142.13;135.60;;;15.40;99.90;;;;;;4988342;28;20070;-72
2023/05/08 07:28:53;;;;;;;73.22;69.38;;;15.60;99.90;;;;;;4985621;28;20042;-72
2023/05/08 07:31:19;;;;;;;111.00;105.70;;;15.80;99.90;;;;;;4986579;28;20047;-72
2023/05/08 07:33:45;;;;;;;255.15;241.40;;;15.90;99.90;;;;;;4988384;28;20514;-72
2023/05/08 07:36:11;;;;;;;115.60;109.95;;;16.00;99.90;;;;;;4987786;28;20038;-72
2023/05/08 07:38:37;;;;;;;48.22;45.42;;;16.00;99.90;;;;;;4990304;28;20038;-73
2023/05/08 07:41:04;;;;;;;179.15;170.43;;;16.10;99.90;;;;;;4987349;28;20097;-72
2023/05/08 07:43:30;;;;;;;582.63;550.38;;;16.20;99.90;;;;;;4987124;28;20441;-72
2023/05/08 07:45:56;;;;;;;460.35;437.38;;;16.30;99.90;;;;;;4985181;28;20042;-72
2023/05/08 07:48:22;;;;;;;353.83;334.00;;;16.40;99.90;;;;;;4971198;28;20038;-72
2023/05/08 07:50:50;;;;;;;54.50;51.22;;;16.50;99.90;;;;;;4983741;28;20046;-72
2023/05/08 07:53:16;;;;;;;207.07;197.07;;;16.50;99.90;;;;;;4986587;28;20589;-73
2023/05/08 07:55:42;;;;;;;176.10;166.15;;;16.60;99.90;;;;;;4984752;28;20054;-73
2023/05/08 07:58:07;;;;;;;75.80;71.78;;;16.80;99.90;;;;;;4986989;28;20115;-72
2023/05/08 08:00:33;;;;;;;283.33;269.65;;;16.80;99.90;;;;;;4986694;28;20066;-72
2023/05/08 08:02:59;;;;;;;57.38;54.05;;;17.00;99.90;;;;;;4985451;28;20165;-72
2023/05/08 08:05:24;;;;;;;80.13;76.05;;;17.10;99.90;;;;;;4987428;28;20045;-72
2023/05/08 08:07:50;;;;;;;129.38;122.90;;;17.20;99.90;;;;;;4969937;28;20046;-73
2023/05/08 08:10:15;;;;;;;53.92;50.85;;;17.30;99.90;;;;;;5001764;28;20053;-73
2023/05/08 08:12:41;;;;;;;65.63;62.08;;;17.30;99.90;;;;;;4969426;28;20050;-72
2023/05/08 08:15:07;;;;;;;64.30;60.83;;;17.40;99.90;;;;;;4971266;28;20038;-73
2023/05/08 08:17:33;;;;;;;59.08;55.72;;;17.50;99.90;;;;;;4968535;28;20242;-72
2023/05/08 08:19:58;;;;;;;75.40;71.53;;;17.50;99.90;;;;;;4985975;28;20078;-73
2023/05/08 08:22:25;;;;;;;76.00;72.13;;;17.50;99.90;;;;;;4986875;28;20490;-73
2023/05/08 08:24:53;;;;;;;80.22;76.07;;;17.40;99.90;;;;;;4985228;28;20053;-72
2023/05/08 08:27:19;;;;;;;84.43;80.07;;;17.40;99.90;;;;;;4985300;28;20124;-72
2023/05/08 08:29:44;;;;;;;83.13;78.97;;;17.50;99.90;;;;;;4985354;28;20491;-73
2023/05/08 08:32:10;;;;;;;101.10;96.30;;;17.70;99.90;;;;;;4985165;28;20092;-72
2023/05/08 08:34:35;;;;;;;57.22;54.10;;;17.70;99.90;;;;;;4985826;28;20487;-73
2023/05/08 08:37:01;;;;;;;119.35;113.78;;;17.80;99.90;;;;;;4983493;28;20130;-73
2023/05/08 08:39:27;;;;;;;95.38;90.70;;;17.80;99.90;;;;;;4980143;28;20454;-73
2023/05/08 08:41:52;;;;;;;59.42;56.17;;;17.80;99.90;;;;;;4985916;28;20030;-73
2023/05/08 08:44:18;;;;;;;59.53;56.33;;;17.90;99.90;;;;;;4971243;28;20472;-72
2023/05/08 08:46:50;;;;;;;86.80;82.53;;;18.00;99.90;;;;;;4986613;28;20046;-73
2023/05/08 08:49:18;;;;;;;65.07;61.47;;;18.00;99.90;;;;;;4986656;28;20494;-73
2023/05/08 08:51:52;;;;;;;69.65;65.60;;;18.10;99.90;;;;;;4985420;28;20086;-72
2023/05/08 08:54:22;;;;;;;142.87;136.37;;;18.20;99.90;;;;;;4986374;28;20540;-73
2023/05/08 08:56:48;;;;;;;155.43;148.07;;;18.20;99.90;;;;;;4985988;28;20319;-73
2023/05/08 08:59:16;;;;;;;117.38;111.78;;;18.40;99.90;;;;;;4987027;28;20034;-73
2023/05/08 09:01:44;;;;;;;247.85;236.02;;;18.50;99.90;;;;;;4985166;28;20438;-72
2023/05/08 09:04:10;;;;;;;124.32;118.32;;;18.70;99.90;;;;;;4986525;28;20539;-72
2023/05/08 09:06:37;;;;;;;132.93;126.53;;;18.90;99.90;;;;;;4984304;28;20228;-73
2023/05/08 09:09:03;;;;;;;208.98;197.80;;;19.20;99.90;;;;;;4986375;28;20092;-73
2023/05/08 09:11:29;;;;;;;92.72;87.97;;;19.40;99.90;;;;;;4986409;28;20047;-73
2023/05/08 09:13:55;;;;;;;76.28;72.43;;;19.70;99.90;;;;;;4986331;28;20406;-73
2023/05/08 09:16:22;;;;;;;552.58;521.95;;;20.20;99.90;;;;;;4986609;28;20034;-73
2023/05/08 09:18:47;;;;;;;359.88;341.88;;;20.90;99.90;;;;;;4986300;28;20138;-73
2023/05/08 09:21:13;;;;;;;148.90;141.82;;;21.40;99.90;;;;;;4981732;28;20129;-73
2023/05/08 09:24:04;;;;;;;397.52;377.98;;;21.70;99.90;;;;;;4982083;28;20050;-73
2023/05/08 09:26:38;;;;;;;108.43;103.03;;;22.00;99.90;;;;;;4986133;28;20049;-73
2023/05/08 09:29:17;;;;;;;;;;;22.10;99.90;;;;;;4987032;28;20399;-73
2023/05/08 09:31:45;;;;;;;242.82;231.43;;;22.00;99.90;;;;;;4969232;28;19930;-73
2023/05/08 09:34:25;;;;;;;444.77;421.45;;;22.10;99.90;;;;;;4986905;28;20068;-71
2023/05/08 09:36:51;;;;;;;156.75;149.55;;;22.30;99.90;;;;;;4993158;28;20061;-73
2023/05/08 09:39:24;;;;;;;203.00;192.65;;;22.50;99.90;;;;;;4975346;28;20402;-73
2023/05/08 09:42:04;;;;;;;345.10;326.70;;;22.30;99.90;;;;;;4985164;28;20095;-73
2023/05/08 09:44:45;;;;;;;431.15;406.23;;;22.20;99.90;;;;;;4968541;28;20467;-73
2023/05/08 09:47:16;;;;;;;609.42;573.72;;;21.80;99.90;;;;;;4972753;28;20042;-73
2023/05/08 09:50:02;;;;;;;203.38;193.00;;;21.70;99.90;;;;;;4986325;28;20191;-73
2023/05/08 09:52:28;;;;;;;515.28;486.10;;;21.70;99.90;;;;;;4988667;28;20129;-73
2023/05/08 09:54:58;;;;;;;440.90;415.85;;;21.70;99.90;;;;;;4989255;28;20046;-73
2023/05/08 09:57:25;;;;;;;355.27;335.88;;;21.70;99.90;;;;;;4988911;28;20031;-73
2023/05/08 09:59:51;;;;;;;260.77;247.40;;;21.90;99.90;;;;;;4973106;28;20411;-73
2023/05/08 10:02:19;;;;;;;329.02;311.00;;;22.20;99.90;;;;;;4989875;28;20058;-73
2023/05/08 10:04:45;;;;;;;179.10;170.50;;;22.60;99.90;;;;;;4989298;28;20053;-73
2023/05/08 10:07:10;;;;;;;490.95;462.40;;;22.90;99.90;;;;;;4987450;28;20093;-73
2023/05/08 10:09:36;;;;;;;400.67;379.15;;;23.10;99.90;;;;;;4971660;28;20041;-71
2023/05/08 10:12:02;;;;;;;473.83;447.63;;;23.10;99.90;;;;;;4989688;28;20096;-71
2023/05/08 10:14:28;;;;;;;225.15;213.65;;;23.10;99.90;;;;;;4984740;28;20137;-71
2023/05/08 10:16:53;;;;;;;216.88;205.40;;;23.10;99.90;;;;;;4988216;28;20062;-73
2023/05/08 10:19:21;;;;;;;251.15;238.07;;;23.30;99.90;;;;;;4989224;28;20488;-73
2023/05/08 10:21:59;;;;;;;71.35;67.35;;;23.30;99.90;;;;;;4988528;28;20113;-73
2023/05/08 10:24:25;;;;;;;269.20;255.20;;;23.40;99.90;;;;;;4986578;28;20121;-73
2023/05/08 10:27:16;;;;;;;167.68;158.60;;;23.40;99.90;;;;;;4985410;28;20064;-73
2023/05/08 10:29:51;;;;;;;365.08;345.25;;;23.40;99.90;;;;;;4970002;28;20050;-70
2023/05/08 10:32:22;;;;;;;47.22;44.42;;;23.30;99.90;;;;;;4986578;28;20046;-72
2023/05/08 10:34:57;;;;;;;257.67;242.55;;;23.20;99.90;;;;;;4967821;28;20046;-73
2023/05/08 10:37:24;;;;;;;581.88;547.47;;;23.10;99.90;;;;;;4988250;28;20038;-73
2023/05/08 10:39:52;;;;;;;314.50;296.10;;;23.10;99.90;;;;;;4985603;28;20096;-73
2023/05/08 10:42:18;;;;;;;94.18;89.15;;;23.10;99.90;;;;;;4965613;28;20467;-72
2023/05/08 10:44:45;;;;;;;658.97;619.15;;;23.10;99.90;;;;;;4982784;28;20137;-73
2023/05/08 10:47:34;;;;;;;236.98;225.35;;;23.20;99.90;;;;;;4983992;28;20132;-73
2023/05/08 10:50:05;;;;;;;358.65;338.65;;;23.30;99.90;;;;;;4981584;28;20049;-73
2023/05/08 10:52:41;;;;;;;126.72;120.68;;;23.40;99.90;;;;;;4984808;28;20460;-73
2023/05/08 10:55:20;;;;;;;55.40;52.13;;;23.60;99.90;;;;;;4977848;28;20465;-73
2023/05/08 10:58:14;;;;;;;184.90;175.50;;;23.60;99.90;;;;;;4968983;28;20048;-73
2023/05/08 11:00:52;;;;;;;48.67;45.67;;;23.60;99.90;;;;;;4997150;28;20069;-70
2023/05/08 11:03:19;;;;;;;88.68;83.95;;;23.60;99.90;;;;;;4980361;28;20138;-71
2023/05/08 11:05:47;;;;;;;247.60;234.93;;;23.60;99.90;;;;;;4985758;28;20038;-72
2023/05/08 11:08:24;;;;;;;211.45;200.38;;;23.70;99.90;;;;;;4984367;28;20049;-71
2023/05/08 11:11:03;;;;;;;95.20;89.97;;;23.90;99.90;;;;;;4983335;28;20277;-71
2023/05/08 11:13:49;;;;;;;322.27;306.17;;;24.00;99.90;;;;;;4981785;28;20128;-71
2023/05/08 11:16:15;;;;;;;312.25;296.48;;;23.90;99.90;;;;;;4986961;28;20601;-71
2023/05/08 11:19:15;;;;;;;145.38;138.30;;;24.20;99.90;;;;;;4986782;28;20081;-71
2023/05/08 11:22:14;;;;;;;130.35;124.07;;;24.20;99.70;;;;;;5000573;28;20368;-71
2023/05/08 11:24:46;;;;;;;77.88;73.72;;;24.30;99.20;;;;;;4986139;28;20129;-71
2023/05/08 11:27:11;;;;;;;120.07;114.00;;;24.30;99.20;;;;;;4984803;28;20076;-71
2023/05/08 11:29:37;;;;;;;181.77;173.23;;;24.30;97.30;;;;;;4987411;28;20108;-71
2023/05/08 11:32:03;;;;;;;179.23;170.32;;;24.20;98.50;;;;;;4986464;28;20577;-71
2023/05/08 11:34:41;;;;;;;189.95;180.70;;;24.30;99.80;;;;;;4987430;28;20109;-71
2023/05/08 11:37:25;;;;;;;148.70;141.65;;;24.40;99.50;;;;;;5007701;28;20121;-71
2023/05/08 11:39:50;;;;;;;132.98;126.40;;;24.50;99.80;;;;;;4982903;28;20399;-71
2023/05/08 11:42:28;;;;;;;311.60;295.70;;;24.60;99.90;;;;;;4984442;28;20049;-71
2023/05/08 11:45:00;;;;;;;127.70;121.47;;;24.80;99.00;;;;;;4984027;28;20134;-71
2023/05/08 11:47:38;;;;;;;125.22;119.10;;;24.90;99.90;;;;;;4984445;28;20052;-72
2023/05/08 11:50:05;;;;;;;181.60;172.88;;;25.20;98.50;;;;;;4986630;28;20077;-71
2023/05/08 11:52:32;;;;;;;104.07;98.53;;;25.00;96.70;;;;;;4987852;28;20487;-71
2023/05/08 11:55:02;;;;;;;124.30;117.78;;;24.70;98.00;;;;;;4986209;28;20145;-71
2023/05/08 11:57:30;;;;;;;188.30;179.25;;;24.70;97.70;;;;;;4987534;28;20046;-71
2023/05/08 11:59:55;;;;;;;221.43;210.25;;;24.50;97.70;;;;;;4986397;28;20398;-71
2023/05/08 12:02:45;;;;;;;232.95;220.55;;;24.40;98.50;;;;;;4970757;28;20058;-71
2023/05/08 12:05:10;;;;;;;92.75;87.90;;;24.70;99.70;;;;;;4986525;28;20578;-72
2023/05/08 12:07:46;;;;;;;90.20;85.30;;;25.10;99.90;;;;;;4988503;28;20456;-72
2023/05/08 12:10:12;;;;;;;217.40;207.63;;;25.30;98.30;;;;;;4971354;28;20042;-71
2023/05/08 12:12:39;;;;;;;139.18;132.38;;;25.30;97.30;;;;;;4984758;28;20042;-71
2023/05/08 12:15:09;;;;;;;52.95;49.90;;;25.30;96.70;;;;;;4987526;28;20657;-71
2023/05/08 12:17:35;;;;;;;103.78;98.60;;;25.10;96.10;;;;;;4985288;28;20073;-71
2023/05/08 12:20:17;;;;;;;46.63;43.72;;;24.70;96.30;;;;;;4987329;28;20041;-71
2023/05/08 12:22:50;;;;;;;45.80;42.83;;;24.60;97.40;;;;;;4984776;28;20038;-71
2023/05/08 12:25:16;;;;;;;65.50;61.93;;;24.50;97.20;;;;;;4993880;28;20096;-71
2023/05/08 12:27:43;;;;;;;165.82;158.00;;;24.50;97.10;;;;;;4983979;28;20042;-71